Latest Weather Observations for Kuitpo

IDS60801

Issued at 11:35 pm CDT Thursday 30 October 2014 (issued every 30 minutes, with the page automatically refreshed every 10 minutes)

About weather observations | Map of weather stations | Latest weather observations for SA | Other Formats
Station Details ID: 023887 Name: KUITPO FOREST RESERVE Lat: -35.17 Lon: 138.68 Height: 365.0 m
Data from the previous 72 hours. | See also: Recent months at Kuitpo
Date/Time
CDT
Temp
°C
App
Temp
°C
Dew
Point
Rel
Hum
%
Delta-T
°C
Wind Press
QNH
hPa
Press
MSL
hPa
Rain
since 9 am
mm
Dir
 
Spd
km/h
Gust
km/h
Spd
kts
Gust
kts
30/11:30pm 16.2 13.2 10.7 70 3.0 ENE 17 20 9 11 1011.2 1010.8 0.0
30/11:00pm 15.9 13.0 10.9 72 2.7 ENE 17 20 9 11 1011.5 1011.1 0.0
30/10:30pm 16.1 13.1 10.8 71 2.9 ENE 17 20 9 11 1011.7 1011.3 0.0
30/10:00pm 15.9 13.7 10.9 72 2.7 NE 13 15 7 8 1012.2 1011.8 0.0
30/09:30pm 16.1 14.4 11.1 72 2.7 ENE 11 17 6 9 1012.2 1011.8 0.0
30/09:00pm 15.2 13.7 10.6 74 2.5 E 9 11 5 6 1012.1 1011.7 0.0
30/08:30pm 14.7 12.4 10.5 76 2.2 E 13 15 7 8 1011.7 1011.3 0.0
30/08:00pm 15.3 13.0 10.5 73 2.6 ESE 13 19 7 10 1011.7 1011.3 0.0
30/07:30pm 16.9 15.1 10.7 67 3.4 SE 11 15 6 8 1011.6 1011.2 0.0
30/07:00pm 18.4 17.0 11.0 62 4.1 SE 9 13 5 7 1011.7 1011.3 0.0
30/06:30pm 21.1 20.1 10.9 52 5.7 WSW 7 11 4 6 1011.7 1011.3 0.0
30/06:00pm 21.5 20.3 11.5 53 5.7 WSW 9 15 5 8 1012.0 1011.6 0.0
30/05:30pm 21.4 20.1 11.1 52 5.8 SW 9 15 5 8 1011.9 1011.5 0.0
30/05:00pm 21.3 19.0 10.5 50 6.0 WSW 13 20 7 11 1012.2 1011.8 0.0
30/04:30pm 22.5 20.3 10.9 48 6.5 W 13 19 7 10 1012.0 1011.6 0.0
30/04:00pm 21.9 19.8 11.0 50 6.1 W 13 17 7 9 1012.2 1011.8 0.0
30/03:30pm 21.6 18.2 10.4 49 6.2 W 19 30 10 16 1012.4 1012.0 0.0
30/03:00pm 23.5 22.1 7.2 35 8.6 NE 4 9 2 5 1012.6 1012.2 0.0
30/02:30pm 23.5 22.0 8.4 38 8.2 WNW 6 15 3 8 1013.0 1012.7 0.0
30/02:00pm 22.0 20.3 8.5 42 7.3 WSW 7 13 4 7 1013.7 1013.3 0.0
30/01:30pm 20.4 19.0 8.7 47 6.3 NE 6 11 3 6 1014.0 1013.6 0.0
30/01:00pm 19.8 17.9 9.1 50 5.7 WSW 9 17 5 9 1014.3 1013.9 0.0
30/12:30pm 19.7 17.8 10.4 55 5.1 W 11 17 6 9 1014.6 1014.2 0.0
30/12:00pm 18.8 15.9 9.8 56 4.9 W 15 24 8 13 1014.9 1014.5 0.0
30/11:30am 17.9 15.8 9.8 59 4.4 WSW 11 17 6 9 1015.1 1014.7 0.0
30/11:00am 17.7 15.6 9.6 59 4.3 NNW 11 17 6 9 1015.0 1014.6 0.0
30/10:30am 16.6 15.2 10.9 69 3.1 NNE 9 15 5 8 1015.1 1014.7 0.0
30/10:00am 14.7 14.1 10.3 75 2.3 WNW 4 7 2 4 1015.4 1015.1 0.0
30/09:30am 13.5 12.0 10.5 82 1.6 E 9 13 5 7 1015.3 1015.0 0.0
30/09:00am 12.7 11.4 11.4 92 0.7 N 9 13 5 7 1015.4 1015.1 0.0
30/08:30am 11.4 10.5 11.4 100 0.0 ENE 7 11 4 6 1015.8 1015.5 0.0
30/08:00am 10.4 9.2 10.4 100 0.0 ESE 7 11 4 6 1016.0 1015.7 0.0
30/07:30am 9.6 7.8 9.6 100 0.0 E 9 13 5 7 1015.6 1015.3 0.0
30/07:00am 9.0 7.1 9.0 100 0.0 E 9 13 5 7 1015.3 1015.0 0.0
30/06:30am 8.8 6.4 8.8 100 0.0 NNE 11 19 6 10 1014.4 1014.0 0.0
30/06:00am 9.1 6.4 9.1 100 0.0 ENE 13 17 7 9 1014.3 1013.9 0.0
30/05:30am 8.9 6.2 8.9 100 0.0 ENE 13 17 7 9 1014.2 1013.8 0.0
30/05:00am 9.1 7.2 9.1 100 0.0 SE 9 15 5 8 1015.0 1014.6 0.0
30/04:30am 9.7 8.0 9.7 100 0.0 SE 9 11 5 6 1014.7 1014.3 0.0
30/04:00am 10.2 8.6 10.2 100 0.0 NE 9 13 5 7 1014.3 1013.9 0.0
30/03:30am 10.3 7.9 10.1 99 0.1 NE 13 19 7 10 1014.3 1013.9 0.0
30/03:00am 10.9 9.4 10.6 98 0.2 E 9 15 5 8 1014.7 1014.3 0.0
30/02:30am 11.0 9.5 10.7 98 0.2 E 9 13 5 7 1014.8 1014.4 0.0
30/02:00am 10.8 8.9 10.6 99 0.1 E 11 17 6 9 1015.0 1014.6 0.0
30/01:30am 11.1 8.8 10.6 97 0.3 ESE 13 17 7 9 1015.4 1015.1 0.0
30/01:00am 11.2 8.6 10.7 97 0.3 E 15 20 8 11 1015.5 1015.2 0.0
30/12:30am 11.3 8.8 11.0 98 0.2 ESE 15 22 8 12 1016.2 1015.8 0.0
30/12:00am 11.4 9.3 11.1 98 0.2 ESE 13 20 7 11 1016.4 1016.0 0.0
 
Date/Time
CDT
Temp
°C
App
Temp
°C
Dew
Point
Rel
Hum
%
Delta-T
°C
Wind Press
QNH
hPa
Press
MSL
hPa
Rain
since 9 am
mm
Dir
 
Spd
km/h
Gust
km/h
Spd
kts
Gust
kts
29/11:30pm 11.3 9.1 10.8 97 0.3 SE 13 19 7 10 1016.6 1016.2 0.0
29/11:00pm 11.4 9.7 11.1 98 0.2 ESE 11 15 6 8 1016.6 1016.2 0.0
29/10:30pm 11.7 9.6 11.1 96 0.3 SE 13 20 7 11 1016.7 1016.3 0.0
29/10:00pm 11.6 9.1 11.1 97 0.3 ESE 15 22 8 12 1016.7 1016.3 0.0
29/09:30pm 11.8 9.4 11.5 98 0.2 SE 15 22 8 12 1016.6 1016.2 0.0
29/09:00pm 11.9 9.8 11.0 94 0.5 SSE 13 20 7 11 1016.4 1016.0 0.0
29/08:30pm 12.7 11.0 9.7 82 1.6 S 9 13 5 7 1016.3 1015.9 0.0
29/08:00pm 14.0 12.6 9.0 72 2.6 SSW 6 9 3 5 1016.2 1015.8 0.0
29/07:30pm 14.8 12.9 9.0 68 3.0 SW 9 13 5 7 1016.2 1015.8 0.0
29/07:00pm 15.7 13.9 9.6 67 3.2 SW 9 13 5 7 1015.9 1015.6 0.0
29/06:30pm 16.2 14.3 9.2 63 3.7 WSW 9 13 5 7 1016.0 1015.7 0.0
29/06:00pm 17.0 14.7 8.9 59 4.3 W 11 17 6 9 1015.9 1015.6 0.0
29/05:30pm 18.4 15.9 9.7 57 4.7 WSW 13 20 7 11 1015.8 1015.5 0.0
29/05:00pm 19.5 16.1 9.1 51 5.6 W 17 26 9 14 1015.6 1015.3 0.0
29/04:30pm 20.0 17.2 10.1 53 5.4 W 15 24 8 13 1015.7 1015.4 0.0
29/04:00pm 19.6 16.0 8.3 48 6.0 W 17 26 9 14 1015.8 1015.5 0.0
29/03:30pm 19.8 16.4 7.5 45 6.4 NW 15 26 8 14 1015.9 1015.6 0.0
29/03:00pm 18.8 15.3 8.7 52 5.3 WNW 17 30 9 16 1016.4 1016.0 0.0
29/02:30pm 18.8 15.0 9.8 56 4.9 WNW 20 28 11 15 1016.6 1016.2 0.0
29/02:00pm 19.3 16.3 10.8 58 4.7 W 17 28 9 15 1016.9 1016.5 0.0
29/01:30pm 18.9 16.4 11.0 60 4.4 WNW 15 24 8 13 1017.2 1016.8 0.0
29/01:00pm 17.9 15.2 10.5 62 4.0 WNW 15 28 8 15 1017.4 1017.0 0.0
29/12:30pm 18.5 16.7 10.8 61 4.2 NW 11 20 6 11 1017.5 1017.2 0.0
29/12:00pm 17.4 15.1 10.5 64 3.7 WNW 13 24 7 13 1017.8 1017.5 0.0
29/11:30am 17.9 16.0 10.5 62 4.0 NW 11 20 6 11 1018.1 1017.8 0.0
29/11:00am 16.9 14.9 10.3 65 3.6 NW 11 17 6 9 1018.3 1018.0 0.0
29/10:30am 16.9 14.5 10.1 64 3.7 N 13 20 7 11 1018.4 1018.1 0.0
29/10:00am 14.7 13.0 9.7 72 2.6 WNW 9 15 5 8 1018.7 1018.4 0.0
29/09:30am 14.0 12.7 9.8 76 2.2 N 7 11 4 6 1018.8 1018.5 0.0
29/09:00am 14.0 13.1 10.8 81 1.7 NNW 6 9 3 5 1018.8 1018.5 0.2
29/08:30am 12.9 11.6 10.1 83 1.5 N 7 9 4 5 1018.9 1018.6 0.2
29/08:00am 12.6 11.7 10.7 88 1.0 N 6 7 3 4 1018.8 1018.5 0.2
29/07:30am 11.8 11.7 10.7 93 0.6 N 2 6 1 3 1018.7 1018.4 0.2
29/07:00am 11.2 10.7 10.7 97 0.3 NNE 4 7 2 4 1018.6 1018.3 0.2
29/06:30am 10.9 11.1 10.4 97 0.3 CALM 0 7 0 4 1018.6 1018.3 0.2
29/06:00am 11.2 10.7 10.6 96 0.3 N 4 7 2 4 1018.4 1018.1 0.2
29/05:30am 11.2 11.5 10.9 98 0.2 CALM 0 0 0 0 1018.2 1017.9 0.2
29/05:00am 11.1 11.4 10.8 98 0.2 CALM 0 0 0 0 1018.0 1017.7 0.2
29/04:30am 11.1 11.3 10.5 96 0.3 CALM 0 0 0 0 1018.0 1017.7 0.2
29/04:00am 11.2 11.4 10.4 95 0.4 CALM 0 0 0 0 1018.0 1017.7 0.2
29/03:30am 11.2 11.4 10.6 96 0.3 CALM 0 0 0 0 1018.1 1017.8 0.2
29/03:00am 11.2 11.5 11.0 99 0.1 CALM 0 0 0 0 1018.2 1017.9 0.2
29/02:30am 11.3 10.6 11.3 100 0.0 N 6 7 3 4 1018.1 1017.8 0.2
29/02:00am 11.3 11.7 11.1 99 0.1 CALM 0 6 0 3 1018.3 1018.0 0.2
29/01:30am 11.2 10.3 11.2 100 0.0 ESE 7 9 4 5 1018.5 1018.2 0.2
29/01:00am 11.2 10.3 11.2 100 0.0 E 7 9 4 5 1018.8 1018.5 0.2
29/12:30am 11.1 9.8 11.1 100 0.0 E 9 11 5 6 1018.8 1018.5 0.2
29/12:00am 11.0 9.2 11.0 100 0.0 ESE 11 13 6 7 1018.8 1018.5 0.2
 
Date/Time
CDT
Temp
°C
App
Temp
°C
Dew
Point
Rel
Hum
%
Delta-T
°C
Wind Press
QNH
hPa
Press
MSL
hPa
Rain
since 9 am
mm
Dir
 
Spd
km/h
Gust
km/h
Spd
kts
Gust
kts
28/11:30pm 10.8 9.4 10.8 100 0.0 SSW 9 13 5 7 1018.8 1018.5 0.2
28/11:00pm 11.3 10.0 11.1 99 0.1 W 9 11 5 6 1018.8 1018.5 0.2
28/10:30pm 11.9 12.5 11.9 100 0.0 CALM 0 0 0 0 1018.9 1018.6 0.2
28/10:00pm 12.1 12.4 12.1 100 0.0 W 2 7 1 4 1018.9 1018.6 0.2
28/09:30pm 12.0 11.3 12.0 100 0.0 W 7 11 4 6 1018.9 1018.6 0.2
28/09:00pm 11.9 11.1 11.6 98 0.2 W 7 11 4 6 1018.8 1018.5 0.2
28/08:30pm 12.2 10.6 11.6 96 0.3 W 11 17 6 9 1018.7 1018.4 0.2
28/08:00pm 12.2 10.1 11.3 94 0.5 WSW 13 17 7 9 1018.5 1018.2 0.2
28/07:30pm 12.5 9.9 10.7 89 1.0 WSW 15 22 8 12 1018.3 1018.0 0.2
28/07:00pm 13.0 9.6 10.7 86 1.2 WSW 19 30 10 16 1018.2 1017.9 0.2
28/06:30pm 15.0 11.7 10.8 76 2.3 W 19 28 10 15 1018.0 1017.7 0.2
28/06:00pm 14.7 11.5 10.1 74 2.4 WSW 17 24 9 13 1018.1 1017.8 0.2
28/05:30pm 15.0 11.8 10.0 72 2.6 WSW 17 26 9 14 1018.0 1017.7 0.2
28/05:00pm 15.4 11.7 9.3 67 3.2 WSW 19 28 10 15 1017.9 1017.6 0.2
28/04:30pm 16.2 12.5 9.4 64 3.6 W 19 28 10 15 1017.8 1017.5 0.2
28/04:00pm 16.0 12.0 9.2 64 3.6 W 20 30 11 16 1017.8 1017.5 0.2
28/03:30pm 16.1 11.9 8.3 60 4.0 W 20 30 11 16 1017.8 1017.5 0.2
28/03:00pm 15.7 11.0 9.1 65 3.4 WSW 24 35 13 19 1018.0 1017.7 0.2
28/02:30pm 15.8 12.0 9.7 67 3.2 WSW 20 32 11 17 1018.3 1018.0 0.2
28/02:00pm 15.1 11.1 9.2 68 3.1 W 20 35 11 19 1018.5 1018.2 0.2
28/01:30pm 15.3 11.3 9.2 67 3.2 W 20 32 11 17 1018.4 1018.1 0.2
28/01:00pm 15.3 11.1 9.9 70 2.9 W 22 41 12 22 1018.3 1018.0 0.2
28/12:30pm 14.1 9.1 9.5 74 2.4 W 26 41 14 22 1018.2 1017.9 0.2
28/12:00pm 12.4 8.6 11.1 92 0.7 WSW 22 37 12 20 1018.3 1018.0 0.2
28/11:30am 14.4 8.8 8.8 69 2.9 W 28 43 15 23 1018.1 1017.8 0.0
28/11:09am 14.8 9.1 8.3 65 3.3 W 28 46 15 25 1018.1 1017.8 0.0
28/11:00am 14.8 9.1 8.3 65 3.3 W 28 43 15 23 1018.0 1017.7 0.0
28/10:30am 13.1 7.8 9.7 80 1.8 W 28 43 15 23 1018.2 1017.9 0.0
28/10:00am 12.7 6.7 8.8 77 2.0 W 30 43 16 23 1017.9 1017.6 0.0
28/09:30am 13.1 9.7 10.6 85 1.3 W 19 32 10 17 1017.8 1017.5 0.0
28/09:00am 11.1 6.7 10.3 95 0.4 W 24 37 13 20 1017.8 1017.5 0.4
28/08:30am 11.6 8.1 10.8 95 0.4 W 20 30 11 16 1017.4 1017.0 0.2
28/08:00am 11.3 7.2 11.3 100 0.0 W 24 39 13 21 1017.2 1016.8 0.2
28/07:30am 11.0 8.1 11.0 100 0.0 W 17 28 9 15 1016.8 1016.4 0.2
28/07:00am 10.5 7.1 10.5 100 0.0 W 19 28 10 15 1016.6 1016.2 0.2
28/06:30am 10.4 6.3 10.1 98 0.2 W 22 39 12 21 1016.3 1015.9 0.0
28/06:00am 11.3 6.1 9.0 86 1.2 W 26 39 14 21 1015.7 1015.4 0.0
28/05:30am 11.4 6.6 8.8 84 1.3 W 24 41 13 22 1015.7 1015.4 0.0
28/05:00am 11.6 6.3 8.6 82 1.5 W 26 41 14 22 1015.5 1015.2 0.0
28/04:30am 11.4 7.7 8.1 80 1.6 W 17 30 9 16 1015.5 1015.2 0.0
28/04:00am 11.4 7.2 8.3 81 1.6 W 20 33 11 18 1015.4 1015.1 0.0
28/03:30am 11.5 6.4 7.6 77 1.9 W 24 39 13 21 1015.4 1015.1 0.0
28/03:02am 11.1 5.3 8.0 81 1.5 W 28 46 15 25 1015.5 1015.2 0.0
28/03:00am 11.2 5.8 8.1 81 1.5 W 26 44 14 24 1015.5 1015.2 0.0
28/02:30am 11.3 6.2 7.6 78 1.8 W 24 39 13 21 1015.8 1015.5 0.0
28/02:26am 11.2 5.3 7.7 79 1.7 W 28 50 15 27 1015.8 1015.5 0.0
28/02:00am 11.2 5.7 7.7 79 1.7 W 26 44 14 24 1015.9 1015.6 0.0
28/01:30am 11.3 6.0 7.0 75 2.1 W 24 43 13 23 1016.0 1015.7 0.0
28/01:00am 11.2 6.3 7.1 76 2.0 W 22 33 12 18 1016.3 1015.9 0.0
28/12:30am 11.0 6.1 6.7 75 2.1 W 22 37 12 20 1016.0 1015.7 0.0
28/12:00am 10.7 5.7 6.6 76 2.0 W 22 35 12 19 1016.0 1015.7 0.0

Other Formats:

Comma delimited format used in spreadsheet applications
http://www.bom.gov.au/fwo/IDS60801/IDS60801.94683.axf

JavaScript Object Notation format (JSON) in row-major order
http://www.bom.gov.au/fwo/IDS60801/IDS60801.94683.json